Terminal Aerodrome Forecast
Issued by NWS

Home | Current Version | Previous Version | Graphics & Text | Print | Product List | Glossary On
Versions: 1 2 3 4 5 6 7 8 9 10 11 12 13
000
FTUS43 KGRB 161100
TAFCWA
TAF
KCWA 161120Z 1612/1712 10005KT P6SM SCT250
     FM162100 25005KT P6SM SCT070 BKN090
     FM170100 VRB03KT P6SM BKN070
     FM170900 VRB03KT P6SM SCT080=

USA.gov is the U.S. government's official web portal to all federal, state and local government web resources and services.